Terminal Aerodrome Forecast
Issued by NWS Dodge City, KS

Home | Current Version | Previous Version | Graphics & Text | Print | Product List | Glossary Off
Versions: 1 2 3 4 5 6 7 8 9 10 11 12 13 14 15 16 17 18 19 20 21 22 23 24 25 26 27 28 29 30 31 32 33

727
FTUS43 KDDC 170520
TAFDDC
TAF
KDDC 170520Z 1706/1806 17016KT P6SM SCT250
     FM171000 20011KT P6SM SCT200
     FM180300 26013KT P6SM SCT250
     FM180500 31021G29KT P6SM SCT250=

USA.gov is the U.S. government's official web portal to all federal, state and local government web resources and services.